Bow Street, United Kingdom
Current Conditions -  °F | °C
As of 7:50 PM on Thursday 18 Dec 2014 (Local Time) from EGOP Reporting Station
Overcast Overcast  
Wind Chill: 54°   Ceiling: 400
Heat Index: 54°   Visibility: 2.1mi
Dew Point: 54°   Wind: 35mph
Humidity: 100%   Direction: 240°WSW
Pressure: 29.8"   Gusts: NA
Location:  52.44°N, 4.03°W
Report Text: EGOP 181950Z AUTO 24030KT 3400 // OVC004/// 12/12 Q1009
Loading
Personal Weather Stations






























Interactive Weather Map New forecast layout! Learn more

10-Day Weather Forecast

Advertisements
Track Severe Weather on mobile